Time,TemperatureF,DewpointF,PressureIn,WindDirection,WindDirectionDegrees,WindSpeedMPH,WindSpeedGustMPH,Humidity,HourlyPrecipIn,Conditions,Clouds,dailyrainin,SoftwareType,DateUTC
2013-01-27 00:06:00,11.9,5.0,30.34,ESE,120,0.0,-999.0,72,-99.99,,,0.00,weatherlink.com 1.10,2013-01-27 05:06:00,
2013-01-27 00:21:00,11.5,4.0,30.34,ESE,120,0.0,-999.0,72,-99.99,,,0.00,weatherlink.com 1.10,2013-01-27 05:21:00,
2013-01-27 00:36:00,11.5,4.0,30.34,ENE,58,3.0,-999.0,73,-99.99,,,0.00,weatherlink.com 1.10,2013-01-27 05:36:00,
2013-01-27 00:51:00,11.7,5.0,30.34,NE,38,1.0,-999.0,73,-99.99,,,0.00,weatherlink.com 1.10,2013-01-27 05:51:00,
2013-01-27 01:06:00,11.6,5.0,30.34,East,88,0.0,-999.0,73,-99.99,,,0.00,weatherlink.com 1.10,2013-01-27 06:06:00,
2013-01-27 01:22:00,11.0,4.0,30.35,East,88,0.0,-999.0,74,-99.99,,,0.00,weatherlink.com 1.10,2013-01-27 06:22:00,
2013-01-27 01:39:00,9.6,3.0,30.36,East,88,0.0,-999.0,75,-99.99,,,0.00,weatherlink.com 1.10,2013-01-27 06:39:00,
2013-01-27 01:51:00,9.2,3.0,30.36,East,88,0.0,-999.0,77,-99.99,,,0.00,weatherlink.com 1.10,2013-01-27 06:51:00,
2013-01-27 02:06:00,10.0,5.0,30.37,East,88,0.0,-999.0,79,-99.99,,,0.00,weatherlink.com 1.10,2013-01-27 07:06:00,
2013-01-27 02:21:00,9.8,5.0,30.36,East,88,0.0,-999.0,81,-99.99,,,0.00,weatherlink.com 1.10,2013-01-27 07:21:00,
2013-01-27 02:36:00,9.7,5.0,30.37,East,88,0.0,-999.0,81,-99.99,,,0.00,weatherlink.com 1.10,2013-01-27 07:36:00,
2013-01-27 02:51:00,9.3,5.0,30.37,East,88,0.0,-999.0,81,-99.99,,,0.00,weatherlink.com 1.10,2013-01-27 07:51:00,
2013-01-27 03:06:00,8.6,4.0,30.37,East,88,0.0,-999.0,82,-99.99,,,0.00,weatherlink.com 1.10,2013-01-27 08:06:00,
2013-01-27 03:21:00,7.9,4.0,30.38,East,88,0.0,-999.0,83,-99.99,,,0.00,weatherlink.com 1.10,2013-01-27 08:21:00,
2013-01-27 03:36:00,8.6,5.0,30.38,East,88,0.0,-999.0,85,-99.99,,,0.00,weatherlink.com 1.10,2013-01-27 08:36:00,
2013-01-27 03:51:00,9.5,6.0,30.38,East,88,0.0,-999.0,85,-99.99,,,0.00,weatherlink.com 1.10,2013-01-27 08:51:00,
2013-01-27 04:07:00,8.2,4.0,30.38,East,88,0.0,-999.0,83,-99.99,,,0.00,weatherlink.com 1.10,2013-01-27 09:07:00,
2013-01-27 04:22:00,7.4,4.0,30.39,East,88,0.0,-999.0,84,-99.99,,,0.00,weatherlink.com 1.10,2013-01-27 09:22:00,
2013-01-27 04:37:00,7.3,4.0,30.40,East,88,0.0,-999.0,85,-99.99,,,0.00,weatherlink.com 1.10,2013-01-27 09:37:00,
2013-01-27 04:53:00,7.4,4.0,30.39,East,88,0.0,-999.0,85,-99.99,,,0.00,weatherlink.com 1.10,2013-01-27 09:53:00,
2013-01-27 05:08:00,6.8,3.0,30.40,East,88,0.0,-999.0,85,-99.99,,,0.00,weatherlink.com 1.10,2013-01-27 10:08:00,
2013-01-27 05:22:00,6.8,4.0,30.41,East,88,0.0,-999.0,86,-99.99,,,0.00,weatherlink.com 1.10,2013-01-27 10:22:00,
2013-01-27 05:37:00,6.9,4.0,30.41,East,88,0.0,-999.0,86,-99.99,,,0.00,weatherlink.com 1.10,2013-01-27 10:37:00,
2013-01-27 05:53:00,7.0,4.0,30.42,East,88,0.0,-999.0,86,-99.99,,,0.00,weatherlink.com 1.10,2013-01-27 10:53:00,
2013-01-27 06:08:00,6.8,4.0,30.43,East,88,0.0,-999.0,86,-99.99,,,0.00,weatherlink.com 1.10,2013-01-27 11:08:00,
2013-01-27 06:23:00,6.9,4.0,30.43,East,88,0.0,-999.0,86,-99.99,,,0.00,weatherlink.com 1.10,2013-01-27 11:23:00,
2013-01-27 06:37:00,7.5,4.0,30.44,East,88,0.0,-999.0,87,-99.99,,,0.00,weatherlink.com 1.10,2013-01-27 11:37:00,
2013-01-27 06:53:00,9.3,7.0,30.44,East,88,0.0,-999.0,88,-99.99,,,0.00,weatherlink.com 1.10,2013-01-27 11:53:00,
2013-01-27 07:07:00,9.5,6.0,30.45,East,88,0.0,-999.0,86,-99.99,,,0.00,weatherlink.com 1.10,2013-01-27 12:07:00,
2013-01-27 07:23:00,7.8,4.0,30.45,East,88,0.0,-999.0,85,-99.99,,,0.00,weatherlink.com 1.10,2013-01-27 12:23:00,
2013-01-27 07:37:00,7.5,4.0,30.46,East,88,0.0,-999.0,86,-99.99,,,0.00,weatherlink.com 1.10,2013-01-27 12:37:00,
2013-01-27 07:52:00,7.1,4.0,30.47,East,88,0.0,-999.0,86,-99.99,,,0.00,weatherlink.com 1.10,2013-01-27 12:52:00,
2013-01-27 08:07:00,8.7,6.0,30.47,East,88,0.0,-999.0,87,-99.99,,,0.00,weatherlink.com 1.10,2013-01-27 13:07:00,
2013-01-27 08:23:00,10.9,7.0,30.47,SE,128,0.0,-999.0,85,-99.99,,,0.00,weatherlink.com 1.10,2013-01-27 13:23:00,
2013-01-27 08:37:00,12.9,8.0,30.48,ESE,118,0.0,-999.0,80,-99.99,,,0.00,weatherlink.com 1.10,2013-01-27 13:37:00,
2013-01-27 08:54:00,13.9,7.0,30.48,ESE,123,5.0,-999.0,74,-99.99,,,0.00,weatherlink.com 1.10,2013-01-27 13:54:00,
2013-01-27 09:08:00,14.7,7.0,30.48,East,96,2.0,-999.0,70,-99.99,,,0.00,weatherlink.com 1.10,2013-01-27 14:08:00,
2013-01-27 09:23:00,15.2,6.0,30.48,East,100,9.0,-999.0,66,-99.99,,,0.00,weatherlink.com 1.10,2013-01-27 14:23:00,
2013-01-27 09:38:00,15.9,5.0,30.49,ESE,110,1.0,-999.0,63,-99.99,,,0.00,weatherlink.com 1.10,2013-01-27 14:38:00,
2013-01-27 09:53:00,16.8,5.0,30.49,ESE,117,4.0,-999.0,59,-99.99,,,0.00,weatherlink.com 1.10,2013-01-27 14:53:00,
2013-01-27 10:09:00,17.8,5.0,30.50,SE,138,0.0,-999.0,58,-99.99,,,0.00,weatherlink.com 1.10,2013-01-27 15:09:00,
2013-01-27 10:24:00,18.4,5.0,30.51,SE,144,4.0,-999.0,55,-99.99,,,0.00,weatherlink.com 1.10,2013-01-27 15:24:00,
2013-01-27 10:39:00,18.8,5.0,30.51,NE,53,1.0,-999.0,54,-99.99,,,0.00,weatherlink.com 1.10,2013-01-27 15:39:00,
2013-01-27 10:54:00,19.3,4.0,30.52,ESE,117,2.0,-999.0,52,-99.99,,,0.00,weatherlink.com 1.10,2013-01-27 15:54:00,
2013-01-27 11:08:00,21.1,5.0,30.51,SSE,148,5.0,-999.0,51,-99.99,,,0.00,weatherlink.com 1.10,2013-01-27 16:08:00,
2013-01-27 11:24:00,22.2,5.0,30.50,SE,138,0.0,-999.0,47,-99.99,,,0.00,weatherlink.com 1.10,2013-01-27 16:24:00,
2013-01-27 11:38:00,21.6,4.0,30.50,ESE,104,4.0,-999.0,46,-99.99,,,0.00,weatherlink.com 1.10,2013-01-27 16:38:00,
2013-01-27 11:54:00,23.3,5.0,30.49,ESE,119,0.0,-999.0,45,-99.99,,,0.00,weatherlink.com 1.10,2013-01-27 16:54:00,
2013-01-27 12:08:00,22.8,4.0,30.49,East,82,2.0,-999.0,44,-99.99,,,0.00,weatherlink.com 1.10,2013-01-27 17:08:00,
2013-01-27 12:23:00,23.8,4.0,30.49,ENE,59,6.0,-999.0,42,-99.99,,,0.00,weatherlink.com 1.10,2013-01-27 17:23:00,
2013-01-27 12:38:00,24.4,2.0,30.48,ENE,78,4.0,-999.0,38,-99.99,,,0.00,weatherlink.com 1.10,2013-01-27 17:38:00,
2013-01-27 12:53:00,24.9,3.0,30.48,SE,142,0.0,-999.0,39,-99.99,,,0.00,weatherlink.com 1.10,2013-01-27 17:53:00,
2013-01-27 13:09:00,26.4,4.0,30.48,NE,41,9.0,-999.0,39,-99.99,,,0.00,weatherlink.com 1.10,2013-01-27 18:09:00,
2013-01-27 13:24:00,25.6,2.0,30.47,NE,53,0.0,-999.0,36,-99.99,,,0.00,weatherlink.com 1.10,2013-01-27 18:24:00,
2013-01-27 13:40:00,26.0,2.0,30.47,ESE,107,4.0,-999.0,36,-99.99,,,0.00,weatherlink.com 1.10,2013-01-27 18:40:00,
2013-01-27 13:54:00,27.4,3.0,30.47,East,90,4.0,-999.0,35,-99.99,,,0.00,weatherlink.com 1.10,2013-01-27 18:54:00,
2013-01-27 14:09:00,26.1,1.0,30.46,ENE,63,0.0,-999.0,34,-99.99,,,0.00,weatherlink.com 1.10,2013-01-27 19:09:00,
2013-01-27 14:24:00,27.1,1.0,30.46,East,85,0.0,-999.0,33,-99.99,,,0.01,weatherlink.com 1.10,2013-01-27 19:24:00,
2013-01-27 14:40:00,28.6,3.0,30.46,NNE,27,3.0,-999.0,33,-99.99,,,0.01,weatherlink.com 1.10,2013-01-27 19:40:00,
2013-01-27 14:54:00,28.7,2.0,30.46,NE,38,1.0,-999.0,32,-99.99,,,0.01,weatherlink.com 1.10,2013-01-27 19:54:00,
2013-01-27 15:09:00,28.4,1.0,30.46,NE,44,4.0,-999.0,31,-99.99,,,0.01,weatherlink.com 1.10,2013-01-27 20:09:00,
2013-01-27 15:24:00,28.3,1.0,30.46,SE,142,6.0,-999.0,31,-99.99,,,0.01,weatherlink.com 1.10,2013-01-27 20:24:00,
2013-01-27 15:39:00,27.9,0.0,30.47,NE,49,1.0,-999.0,30,-99.99,,,0.01,weatherlink.com 1.10,2013-01-27 20:39:00,
2013-01-27 15:54:00,27.6,0.0,30.48,ENE,70,1.0,-999.0,30,-99.99,,,0.01,weatherlink.com 1.10,2013-01-27 20:54:00,
2013-01-27 16:09:00,27.5,1.0,30.48,ENE,61,4.0,-999.0,32,-99.99,,,0.01,weatherlink.com 1.10,2013-01-27 21:09:00,
2013-01-27 16:25:00,26.9,1.0,30.48,ESE,123,0.0,-999.0,32,-99.99,,,0.01,weatherlink.com 1.10,2013-01-27 21:25:00,
2013-01-27 16:39:00,26.1,1.0,30.48,ENE,66,0.0,-999.0,34,-99.99,,,0.01,weatherlink.com 1.10,2013-01-27 21:39:00,
2013-01-27 16:54:00,25.2,1.0,30.49,ESE,110,2.0,-999.0,35,-99.99,,,0.01,weatherlink.com 1.10,2013-01-27 21:54:00,
2013-01-27 17:10:00,24.4,0.0,30.49,ENE,63,0.0,-999.0,35,-99.99,,,0.01,weatherlink.com 1.10,2013-01-27 22:10:00,
2013-01-27 17:25:00,23.8,0.0,30.49,ENE,59,0.0,-999.0,36,-99.99,,,0.01,weatherlink.com 1.10,2013-01-27 22:25:00,
2013-01-27 17:40:00,23.3,0.0,30.49,ESE,111,0.0,-999.0,37,-99.99,,,0.01,weatherlink.com 1.10,2013-01-27 22:40:00,
2013-01-27 17:55:00,22.9,1.0,30.49,East,80,1.0,-999.0,39,-99.99,,,0.01,weatherlink.com 1.10,2013-01-27 22:55:00,
2013-01-27 18:11:00,22.5,1.0,30.49,NE,56,0.0,-999.0,39,-99.99,,,0.01,weatherlink.com 1.10,2013-01-27 23:11:00,
2013-01-27 18:26:00,22.2,1.0,30.50,East,84,0.0,-999.0,40,-99.99,,,0.01,weatherlink.com 1.10,2013-01-27 23:26:00,
2013-01-27 18:41:00,21.8,1.0,30.50,NE,48,2.0,-999.0,41,-99.99,,,0.01,weatherlink.com 1.10,2013-01-27 23:41:00,
2013-01-27 18:56:00,21.4,1.0,30.50,ENE,65,1.0,-999.0,42,-99.99,,,0.01,weatherlink.com 1.10,2013-01-27 23:56:00,
2013-01-27 19:11:00,21.2,2.0,30.48,East,91,1.0,-999.0,43,-99.99,,,0.01,weatherlink.com 1.10,2013-01-28 00:11:00,
2013-01-27 19:25:00,20.9,2.0,30.49,ENE,62,4.0,-999.0,44,-99.99,,,0.01,weatherlink.com 1.10,2013-01-28 00:25:00,
2013-01-27 19:41:00,20.7,2.0,30.49,ENE,65,0.0,-999.0,45,-99.99,,,0.01,weatherlink.com 1.10,2013-01-28 00:41:00,
2013-01-27 19:55:00,20.5,2.0,30.48,ENE,61,0.0,-999.0,45,-99.99,,,0.01,weatherlink.com 1.10,2013-01-28 00:55:00,
2013-01-27 20:11:00,19.6,3.0,30.49,ENE,61,0.0,-999.0,48,-99.99,,,0.01,weatherlink.com 1.10,2013-01-28 01:11:00,
2013-01-27 20:26:00,19.3,2.0,30.49,ENE,61,0.0,-999.0,47,-99.99,,,0.01,weatherlink.com 1.10,2013-01-28 01:26:00,
2013-01-27 20:42:00,18.9,3.0,30.48,ENE,61,0.0,-999.0,49,-99.99,,,0.01,weatherlink.com 1.10,2013-01-28 01:42:00,
2013-01-27 20:57:00,18.5,2.0,30.48,ENE,61,0.0,-999.0,49,-99.99,,,0.01,weatherlink.com 1.10,2013-01-28 01:57:00,
2013-01-27 21:12:00,17.7,2.0,30.49,ENE,61,0.0,-999.0,51,-99.99,,,0.01,weatherlink.com 1.10,2013-01-28 02:12:00,
2013-01-27 21:26:00,17.4,3.0,30.49,ENE,61,0.0,-999.0,54,-99.99,,,0.01,weatherlink.com 1.10,2013-01-28 02:26:00,
2013-01-27 21:41:00,17.3,3.0,30.48,ENE,61,0.0,-999.0,54,-99.99,,,0.01,weatherlink.com 1.10,2013-01-28 02:41:00,
2013-01-27 21:56:00,17.1,3.0,30.49,ENE,61,0.0,-999.0,53,-99.99,,,0.01,weatherlink.com 1.10,2013-01-28 02:56:00,
2013-01-27 22:12:00,17.2,3.0,30.49,ENE,61,0.0,-999.0,54,-99.99,,,0.01,weatherlink.com 1.10,2013-01-28 03:12:00,
2013-01-27 22:27:00,18.4,5.0,30.48,ENE,61,0.0,-999.0,55,-99.99,,,0.01,weatherlink.com 1.10,2013-01-28 03:27:00,
2013-01-27 22:42:00,17.6,5.0,30.48,ENE,61,0.0,-999.0,57,-99.99,,,0.01,weatherlink.com 1.10,2013-01-28 03:42:00,
2013-01-27 22:56:00,16.7,4.0,30.48,ENE,61,0.0,-999.0,57,-99.99,,,0.01,weatherlink.com 1.10,2013-01-28 03:56:00,
2013-01-27 23:12:00,16.4,3.0,30.47,ENE,61,0.0,-999.0,57,-99.99,,,0.01,weatherlink.com 1.10,2013-01-28 04:12:00,
2013-01-27 23:27:00,16.6,4.0,30.47,ENE,61,0.0,-999.0,58,-99.99,,,0.01,weatherlink.com 1.10,2013-01-28 04:27:00,
2013-01-27 23:42:00,16.7,5.0,30.46,ENE,61,0.0,-999.0,59,-99.99,,,0.01,weatherlink.com 1.10,2013-01-28 04:42:00,
2013-01-27 23:57:00,16.6,4.0,30.47,ENE,61,0.0,-999.0,58,-99.99,,,0.01,weatherlink.com 1.10,2013-01-28 04:57:00,